sensor_id;sensor_type;location;lat;lon;timestamp;pressure;altitude;pressure_sealevel;temperature;humidity
61528;BME280;47395;42.032;-8.634;2023-03-15T00:00:18;101662.13;;;13.37;73.97
61528;BME280;47395;42.032;-8.634;2023-03-15T00:02:22;101667.00;;;13.27;74.41
61528;BME280;47395;42.032;-8.634;2023-03-15T00:04:23;101663.31;;;13.31;74.42
61528;BME280;47395;42.032;-8.634;2023-03-15T00:06:28;101660.56;;;13.32;74.40
61528;BME280;47395;42.032;-8.634;2023-03-15T00:08:37;101658.44;;;13.41;74.05
61528;BME280;47395;42.032;-8.634;2023-03-15T00:10:45;101649.03;;;13.54;73.78
61528;BME280;47395;42.032;-8.634;2023-03-15T00:12:47;101649.88;;;13.55;73.66
61528;BME280;47395;42.032;-8.634;2023-03-15T00:14:51;101643.69;;;13.35;74.56
61528;BME280;47395;42.032;-8.634;2023-03-15T00:16:51;101644.69;;;13.32;74.87
61528;BME280;47395;42.032;-8.634;2023-03-15T00:18:56;101641.13;;;13.34;75.00
61528;BME280;47395;42.032;-8.634;2023-03-15T00:20:57;101645.56;;;13.33;75.24
61528;BME280;47395;42.032;-8.634;2023-03-15T00:22:58;101636.75;;;13.32;75.23
61528;BME280;47395;42.032;-8.634;2023-03-15T00:24:59;101640.97;;;13.37;75.20
61528;BME280;47395;42.032;-8.634;2023-03-15T00:27:03;101639.97;;;13.39;75.36
61528;BME280;47395;42.032;-8.634;2023-03-15T00:29:05;101646.13;;;13.40;75.27
61528;BME280;47395;42.032;-8.634;2023-03-15T00:31:15;101641.41;;;13.47;75.14
61528;BME280;47395;42.032;-8.634;2023-03-15T00:33:18;101639.44;;;13.52;74.78
61528;BME280;47395;42.032;-8.634;2023-03-15T00:35:20;101644.94;;;13.47;74.63
61528;BME280;47395;42.032;-8.634;2023-03-15T00:37:23;101644.94;;;13.47;74.67
61528;BME280;47395;42.032;-8.634;2023-03-15T00:39:27;101644.19;;;13.43;74.82
61528;BME280;47395;42.032;-8.634;2023-03-15T00:41:28;101635.75;;;13.35;75.24
61528;BME280;47395;42.032;-8.634;2023-03-15T00:43:31;101633.19;;;13.34;75.67
61528;BME280;47395;42.032;-8.634;2023-03-15T00:45:35;101626.09;;;13.34;75.54
61528;BME280;47395;42.032;-8.634;2023-03-15T00:47:35;101624.38;;;13.33;75.67
61528;BME280;47395;42.032;-8.634;2023-03-15T00:49:38;101620.72;;;13.36;75.45
61528;BME280;47395;42.032;-8.634;2023-03-15T00:51:40;101627.41;;;13.44;75.31
61528;BME280;47395;42.032;-8.634;2023-03-15T00:53:43;101622.16;;;13.43;75.03
61528;BME280;47395;42.032;-8.634;2023-03-15T00:55:44;101620.38;;;13.43;74.72
61528;BME280;47395;42.032;-8.634;2023-03-15T00:57:50;101621.97;;;13.48;74.62
61528;BME280;47395;42.032;-8.634;2023-03-15T00:59:55;101620.22;;;13.47;74.46
61528;BME280;47395;42.032;-8.634;2023-03-15T01:01:55;101612.69;;;13.58;74.36
61528;BME280;47395;42.032;-8.634;2023-03-15T01:03:56;101606.06;;;13.67;73.82
61528;BME280;47395;42.032;-8.634;2023-03-15T01:06:00;101613.03;;;13.69;73.57
61528;BME280;47395;42.032;-8.634;2023-03-15T01:08:04;101604.13;;;13.70;73.44
61528;BME280;47395;42.032;-8.634;2023-03-15T01:10:09;101611.00;;;13.75;73.28
61528;BME280;47395;42.032;-8.634;2023-03-15T01:12:13;101601.41;;;13.72;73.61
61528;BME280;47395;42.032;-8.634;2023-03-15T01:14:14;101606.94;;;13.67;73.75
61528;BME280;47395;42.032;-8.634;2023-03-15T01:16:17;101613.25;;;13.65;73.96
61528;BME280;47395;42.032;-8.634;2023-03-15T01:18:18;101601.72;;;13.66;74.33
61528;BME280;47395;42.032;-8.634;2023-03-15T01:20:21;101602.72;;;13.63;74.18
61528;BME280;47395;42.032;-8.634;2023-03-15T01:22:22;101607.28;;;13.60;74.29
61528;BME280;47395;42.032;-8.634;2023-03-15T01:24:25;101617.25;;;13.54;74.33
61528;BME280;47395;42.032;-8.634;2023-03-15T01:26:26;101602.16;;;13.56;74.48
61528;BME280;47395;42.032;-8.634;2023-03-15T01:28:29;101616.25;;;13.38;74.88
61528;BME280;47395;42.032;-8.634;2023-03-15T01:30:30;101616.50;;;13.31;75.00
61528;BME280;47395;42.032;-8.634;2023-03-15T01:32:33;101615.66;;;13.31;75.07
61528;BME280;47395;42.032;-8.634;2023-03-15T01:34:34;101623.66;;;13.29;75.40
61528;BME280;47395;42.032;-8.634;2023-03-15T01:36:39;101618.44;;;13.28;75.43
61528;BME280;47395;42.032;-8.634;2023-03-15T01:38:40;101624.50;;;13.30;75.22
61528;BME280;47395;42.032;-8.634;2023-03-15T01:40:44;101618.50;;;13.26;75.26
61528;BME280;47395;42.032;-8.634;2023-03-15T01:47:43;101627.16;;;13.30;75.41
61528;BME280;47395;42.032;-8.634;2023-03-15T01:49:49;101621.44;;;13.20;75.85
61528;BME280;47395;42.032;-8.634;2023-03-15T01:52:00;101622.66;;;13.13;75.90
61528;BME280;47395;42.032;-8.634;2023-03-15T01:54:32;101620.53;;;13.00;76.57
61528;BME280;47395;42.032;-8.634;2023-03-15T01:56:40;101618.97;;;12.96;76.79
61528;BME280;47395;42.032;-8.634;2023-03-15T01:58:42;101624.31;;;12.95;76.94
61528;BME280;47395;42.032;-8.634;2023-03-15T02:00:44;101620.03;;;12.92;76.96
61528;BME280;47395;42.032;-8.634;2023-03-15T02:02:53;101624.59;;;12.88;76.99
61528;BME280;47395;42.032;-8.634;2023-03-15T02:05:06;101617.84;;;12.81;77.08
61528;BME280;47395;42.032;-8.634;2023-03-15T02:07:14;101615.50;;;12.75;77.09
61528;BME280;47395;42.032;-8.634;2023-03-15T02:09:17;101617.31;;;12.73;77.29
61528;BME280;47395;42.032;-8.634;2023-03-15T02:11:27;101610.66;;;12.64;77.20
61528;BME280;47395;42.032;-8.634;2023-03-15T02:13:30;101601.16;;;12.60;77.04
61528;BME280;47395;42.032;-8.634;2023-03-15T02:15:35;101605.84;;;12.53;77.15
61528;BME280;47395;42.032;-8.634;2023-03-15T02:17:45;101596.38;;;12.47;77.02
61528;BME280;47395;42.032;-8.634;2023-03-15T02:20:03;101599.16;;;12.44;77.08
61528;BME280;47395;42.032;-8.634;2023-03-15T02:25:11;101584.50;;;12.37;77.06
61528;BME280;47395;42.032;-8.634;2023-03-15T02:27:31;101585.50;;;12.34;77.35
61528;BME280;47395;42.032;-8.634;2023-03-15T02:29:35;101583.91;;;12.30;77.39
61528;BME280;47395;42.032;-8.634;2023-03-15T02:31:38;101580.47;;;12.28;77.65
61528;BME280;47395;42.032;-8.634;2023-03-15T02:33:48;101583.31;;;12.23;77.49
61528;BME280;47395;42.032;-8.634;2023-03-15T02:35:49;101576.38;;;12.21;77.66
61528;BME280;47395;42.032;-8.634;2023-03-15T02:37:50;101575.56;;;12.19;77.71
61528;BME280;47395;42.032;-8.634;2023-03-15T02:39:51;101569.69;;;12.12;77.79
61528;BME280;47395;42.032;-8.634;2023-03-15T02:41:55;101568.69;;;12.14;77.55
61528;BME280;47395;42.032;-8.634;2023-03-15T02:44:27;101573.66;;;12.00;78.21
61528;BME280;47395;42.032;-8.634;2023-03-15T02:46:29;101564.97;;;11.98;78.27
61528;BME280;47395;42.032;-8.634;2023-03-15T02:48:33;101551.22;;;11.90;78.73
61528;BME280;47395;42.032;-8.634;2023-03-15T02:50:36;101563.03;;;11.79;79.39
61528;BME280;47395;42.032;-8.634;2023-03-15T02:52:37;101550.59;;;11.83;79.37
61528;BME280;47395;42.032;-8.634;2023-03-15T02:54:39;101541.81;;;11.82;79.68
61528;BME280;47395;42.032;-8.634;2023-03-15T02:56:43;101542.97;;;11.97;79.24
61528;BME280;47395;42.032;-8.634;2023-03-15T02:58:44;101538.25;;;12.06;78.74
61528;BME280;47395;42.032;-8.634;2023-03-15T03:00:46;101534.91;;;12.00;78.52
61528;BME280;47395;42.032;-8.634;2023-03-15T03:02:47;101534.03;;;12.00;78.42
61528;BME280;47395;42.032;-8.634;2023-03-15T03:04:48;101534.09;;;11.98;78.15
61528;BME280;47395;42.032;-8.634;2023-03-15T03:06:51;101534.97;;;11.99;78.21
61528;BME280;47395;42.032;-8.634;2023-03-15T03:08:56;101529.94;;;11.93;78.07
61528;BME280;47395;42.032;-8.634;2023-03-15T03:10:58;101521.13;;;11.94;77.92
61528;BME280;47395;42.032;-8.634;2023-03-15T03:12:59;101518.66;;;11.89;78.10
61528;BME280;47395;42.032;-8.634;2023-03-15T03:15:06;101513.53;;;11.84;77.70
61528;BME280;47395;42.032;-8.634;2023-03-15T03:17:07;101517.44;;;11.75;77.45
61528;BME280;47395;42.032;-8.634;2023-03-15T03:19:09;101513.31;;;11.68;77.42
61528;BME280;47395;42.032;-8.634;2023-03-15T03:21:15;101503.81;;;11.64;77.18
61528;BME280;47395;42.032;-8.634;2023-03-15T03:23:17;101506.66;;;11.59;76.99
61528;BME280;47395;42.032;-8.634;2023-03-15T03:25:18;101510.34;;;11.55;77.06
61528;BME280;47395;42.032;-8.634;2023-03-15T03:27:21;101507.03;;;11.50;76.98
61528;BME280;47395;42.032;-8.634;2023-03-15T03:29:22;101508.19;;;11.43;77.45
61528;BME280;47395;42.032;-8.634;2023-03-15T03:31:25;101496.75;;;11.42;78.07
61528;BME280;47395;42.032;-8.634;2023-03-15T03:33:28;101495.00;;;11.43;78.06
61528;BME280;47395;42.032;-8.634;2023-03-15T03:35:31;101488.78;;;11.44;78.24
61528;BME280;47395;42.032;-8.634;2023-03-15T03:37:32;101484.38;;;11.44;78.42
61528;BME280;47395;42.032;-8.634;2023-03-15T03:39:39;101479.06;;;11.46;77.77
61528;BME280;47395;42.032;-8.634;2023-03-15T03:41:40;101465.97;;;11.43;77.86
61528;BME280;47395;42.032;-8.634;2023-03-15T03:43:44;101464.31;;;11.40;77.68
61528;BME280;47395;42.032;-8.634;2023-03-15T03:45:45;101462.66;;;11.38;77.37
61528;BME280;47395;42.032;-8.634;2023-03-15T03:47:46;101463.53;;;11.38;76.92
61528;BME280;47395;42.032;-8.634;2023-03-15T03:49:47;101462.66;;;11.38;77.08
61528;BME280;47395;42.032;-8.634;2023-03-15T03:51:48;101461.19;;;11.30;76.78
61528;BME280;47395;42.032;-8.634;2023-03-15T03:53:49;101461.38;;;11.26;77.13
61528;BME280;47395;42.032;-8.634;2023-03-15T03:55:50;101458.75;;;11.26;77.04
61528;BME280;47395;42.032;-8.634;2023-03-15T03:57:54;101456.16;;;11.24;77.15
61528;BME280;47395;42.032;-8.634;2023-03-15T04:00:18;101458.91;;;11.21;77.22
61528;BME280;47395;42.032;-8.634;2023-03-15T04:02:19;101455.34;;;11.22;77.07
61528;BME280;47395;42.032;-8.634;2023-03-15T04:04:31;101460.81;;;11.17;77.42
61528;BME280;47395;42.032;-8.634;2023-03-15T04:06:32;101453.69;;;11.19;77.34
61528;BME280;47395;42.032;-8.634;2023-03-15T04:08:33;101452.84;;;11.19;76.79
61528;BME280;47395;42.032;-8.634;2023-03-15T04:10:34;101449.34;;;11.18;76.69
61528;BME280;47395;42.032;-8.634;2023-03-15T04:12:35;101456.69;;;11.10;76.91
61528;BME280;47395;42.032;-8.634;2023-03-15T04:14:36;101452.53;;;11.04;77.32
61528;BME280;47395;42.032;-8.634;2023-03-15T04:16:40;101448.84;;;11.08;76.97
61528;BME280;47395;42.032;-8.634;2023-03-15T04:18:43;101443.09;;;10.99;77.05
61528;BME280;47395;42.032;-8.634;2023-03-15T04:20:46;101439.53;;;11.00;77.19
61528;BME280;47395;42.032;-8.634;2023-03-15T04:22:48;101441.19;;;11.02;77.05
61528;BME280;47395;42.032;-8.634;2023-03-15T04:25:12;101443.09;;;10.99;76.80
61528;BME280;47395;42.032;-8.634;2023-03-15T04:27:23;101444.88;;;10.98;77.24
61528;BME280;47395;42.032;-8.634;2023-03-15T04:29:49;101437.69;;;11.02;77.37
61528;BME280;47395;42.032;-8.634;2023-03-15T04:32:16;101447.56;;;10.96;77.51
61528;BME280;47395;42.032;-8.634;2023-03-15T04:34:38;101441.97;;;11.04;77.70
61528;BME280;47395;42.032;-8.634;2023-03-15T04:36:46;101443.47;;;11.12;77.28
61528;BME280;47395;42.032;-8.634;2023-03-15T04:39:02;101445.31;;;11.09;77.25
61528;BME280;47395;42.032;-8.634;2023-03-15T04:41:25;101433.94;;;11.07;77.23
61528;BME280;47395;42.032;-8.634;2023-03-15T04:43:53;101439.47;;;11.01;77.08
61528;BME280;47395;42.032;-8.634;2023-03-15T04:46:12;101437.81;;;10.99;77.25
61528;BME280;47395;42.032;-8.634;2023-03-15T04:48:35;101433.44;;;10.97;77.10
61528;BME280;47395;42.032;-8.634;2023-03-15T04:50:59;101429.00;;;11.00;76.99
61528;BME280;47395;42.032;-8.634;2023-03-15T04:53:11;101432.78;;;10.92;76.63
61528;BME280;47395;42.032;-8.634;2023-03-15T04:55:41;101429.63;;;10.82;76.36
61528;BME280;47395;42.032;-8.634;2023-03-15T04:58:14;101433.25;;;10.80;76.72
61528;BME280;47395;42.032;-8.634;2023-03-15T05:00:34;101430.69;;;10.78;76.57
61528;BME280;47395;42.032;-8.634;2023-03-15T05:02:54;101424.44;;;10.81;76.71
61528;BME280;47395;42.032;-8.634;2023-03-15T05:05:24;101420.16;;;10.78;76.65
61528;BME280;47395;42.032;-8.634;2023-03-15T05:07:57;101414.16;;;10.73;76.50
61528;BME280;47395;42.032;-8.634;2023-03-15T05:10:08;101426.31;;;10.77;76.60
61528;BME280;47395;42.032;-8.634;2023-03-15T05:12:29;101412.28;;;10.77;76.58
61528;BME280;47395;42.032;-8.634;2023-03-15T05:14:50;101415.81;;;10.76;76.38
61528;BME280;47395;42.032;-8.634;2023-03-15T05:17:09;101414.97;;;10.75;76.72
61528;BME280;47395;42.032;-8.634;2023-03-15T05:19:16;101417.50;;;10.78;76.71
61528;BME280;47395;42.032;-8.634;2023-03-15T05:21:37;101411.19;;;10.82;76.74
61528;BME280;47395;42.032;-8.634;2023-03-15T05:23:56;101411.38;;;10.78;76.74
61528;BME280;47395;42.032;-8.634;2023-03-15T05:26:20;101410.50;;;10.77;76.96
61528;BME280;47395;42.032;-8.634;2023-03-15T05:28:35;101412.41;;;10.74;77.23
61528;BME280;47395;42.032;-8.634;2023-03-15T05:30:44;101406.03;;;10.79;76.80
61528;BME280;47395;42.032;-8.634;2023-03-15T05:33:04;101402.84;;;10.71;76.97
61528;BME280;47395;42.032;-8.634;2023-03-15T05:35:23;101400.47;;;10.65;76.74
61528;BME280;47395;42.032;-8.634;2023-03-15T05:37:44;101404.19;;;10.59;76.74
61528;BME280;47395;42.032;-8.634;2023-03-15T05:40:08;101400.88;;;10.54;76.53
61528;BME280;47395;42.032;-8.634;2023-03-15T05:42:26;101398.34;;;10.51;76.54
61528;BME280;47395;42.032;-8.634;2023-03-15T05:44:54;101389.69;;;10.47;76.36
61528;BME280;47395;42.032;-8.634;2023-03-15T05:47:16;101396.03;;;10.41;76.29
61528;BME280;47395;42.032;-8.634;2023-03-15T05:49:43;101397.16;;;10.34;75.94
61528;BME280;47395;42.032;-8.634;2023-03-15T05:51:57;101380.78;;;10.26;75.89
61528;BME280;47395;42.032;-8.634;2023-03-15T05:54:16;101386.09;;;10.24;75.80
61528;BME280;47395;42.032;-8.634;2023-03-15T05:56:22;101385.31;;;10.22;75.70
61528;BME280;47395;42.032;-8.634;2023-03-15T05:58:37;101385.31;;;10.22;75.48
61528;BME280;47395;42.032;-8.634;2023-03-15T06:00:58;101377.44;;;10.21;75.28
61528;BME280;47395;42.032;-8.634;2023-03-15T06:03:20;101377.59;;;10.16;75.31
61528;BME280;47395;42.032;-8.634;2023-03-15T06:05:27;101376.88;;;10.12;75.67
61528;BME280;47395;42.032;-8.634;2023-03-15T06:07:30;101375.06;;;10.14;75.37
61528;BME280;47395;42.032;-8.634;2023-03-15T06:09:31;101376.03;;;10.12;75.76
61528;BME280;47395;42.032;-8.634;2023-03-15T06:11:32;101368.69;;;10.20;76.26
61528;BME280;47395;42.032;-8.634;2023-03-15T06:13:34;101361.72;;;10.19;76.34
61528;BME280;47395;42.032;-8.634;2023-03-15T06:15:46;101364.81;;;10.30;75.74
61528;BME280;47395;42.032;-8.634;2023-03-15T06:17:48;101351.25;;;10.41;75.37
61528;BME280;47395;42.032;-8.634;2023-03-15T06:19:49;101344.91;;;10.47;75.10
61528;BME280;47395;42.032;-8.634;2023-03-15T06:21:50;101348.59;;;10.41;74.81
61528;BME280;47395;42.032;-8.634;2023-03-15T06:23:58;101354.53;;;10.48;75.10
61528;BME280;47395;42.032;-8.634;2023-03-15T06:25:59;101353.50;;;10.52;74.94
61528;BME280;47395;42.032;-8.634;2023-03-15T06:28:03;101344.63;;;10.55;74.73
61528;BME280;47395;42.032;-8.634;2023-03-15T06:30:04;101344.41;;;10.60;74.89
61528;BME280;47395;42.032;-8.634;2023-03-15T06:32:06;101348.47;;;10.68;74.65
61528;BME280;47395;42.032;-8.634;2023-03-15T06:34:10;101347.81;;;10.63;74.71
61528;BME280;47395;42.032;-8.634;2023-03-15T06:36:12;101339.97;;;10.62;74.23
61528;BME280;47395;42.032;-8.634;2023-03-15T06:38:14;101340.69;;;10.65;74.74
61528;BME280;47395;42.032;-8.634;2023-03-15T06:40:15;101335.38;;;10.67;74.83
61528;BME280;47395;42.032;-8.634;2023-03-15T06:42:17;101339.16;;;10.60;74.28
61528;BME280;47395;42.032;-8.634;2023-03-15T06:44:18;101333.63;;;10.42;75.05
61528;BME280;47395;42.032;-8.634;2023-03-15T06:46:21;101333.25;;;10.53;74.53
61528;BME280;47395;42.032;-8.634;2023-03-15T06:48:22;101331.94;;;10.65;74.22
61528;BME280;47395;42.032;-8.634;2023-03-15T06:50:23;101336.75;;;10.76;74.24
61528;BME280;47395;42.032;-8.634;2023-03-15T06:52:24;101338.28;;;10.81;73.87
61528;BME280;47395;42.032;-8.634;2023-03-15T06:54:25;101337.19;;;10.87;74.11
61528;BME280;47395;42.032;-8.634;2023-03-15T06:56:26;101342.91;;;10.99;73.73
61528;BME280;47395;42.032;-8.634;2023-03-15T06:58:27;101340.19;;;11.00;73.79
61528;BME280;47395;42.032;-8.634;2023-03-15T07:00:28;101337.09;;;10.90;73.07
61528;BME280;47395;42.032;-8.634;2023-03-15T07:02:28;101342.31;;;10.92;73.27
61528;BME280;47395;42.032;-8.634;2023-03-15T07:04:36;101341.50;;;10.90;72.92
61528;BME280;47395;42.032;-8.634;2023-03-15T07:06:37;101336.34;;;10.87;73.13
61528;BME280;47395;42.032;-8.634;2023-03-15T07:08:38;101334.88;;;10.79;72.94
61528;BME280;47395;42.032;-8.634;2023-03-15T07:10:38;101326.47;;;10.47;72.99
61528;BME280;47395;42.032;-8.634;2023-03-15T07:12:39;101332.56;;;10.72;73.25
61528;BME280;47395;42.032;-8.634;2023-03-15T07:14:40;101330.81;;;10.70;73.05
61528;BME280;47395;42.032;-8.634;2023-03-15T07:16:41;101328.25;;;10.69;72.94
61528;BME280;47395;42.032;-8.634;2023-03-15T07:18:42;101328.94;;;10.74;72.76
61528;BME280;47395;42.032;-8.634;2023-03-15T07:20:42;101321.19;;;10.69;72.80
61528;BME280;47395;42.032;-8.634;2023-03-15T07:22:43;101320.34;;;10.69;73.13
61528;BME280;47395;42.032;-8.634;2023-03-15T07:24:45;101320.00;;;10.78;73.08
61528;BME280;47395;42.032;-8.634;2023-03-15T07:26:46;101318.03;;;10.83;73.61
61528;BME280;47395;42.032;-8.634;2023-03-15T07:28:46;101320.84;;;11.01;73.59
61528;BME280;47395;42.032;-8.634;2023-03-15T07:30:59;101326.44;;;11.14;73.36
61528;BME280;47395;42.032;-8.634;2023-03-15T07:33:00;101323.28;;;11.27;72.97
61528;BME280;47395;42.032;-8.634;2023-03-15T07:35:01;101316.69;;;11.37;73.03
61528;BME280;47395;42.032;-8.634;2023-03-15T07:37:02;101312.66;;;11.70;72.63
61528;BME280;47395;42.032;-8.634;2023-03-15T07:39:03;101310.31;;;12.61;68.79
61528;BME280;47395;42.032;-8.634;2023-03-15T07:41:06;101307.97;;;13.45;65.03
61528;BME280;47395;42.032;-8.634;2023-03-15T07:43:07;101318.88;;;14.40;62.82
61528;BME280;47395;42.032;-8.634;2023-03-15T07:45:08;101316.25;;;15.34;59.55
61528;BME280;47395;42.032;-8.634;2023-03-15T07:47:09;101308.19;;;16.92;55.57
61528;BME280;47395;42.032;-8.634;2023-03-15T07:49:10;101310.41;;;18.04;52.17
61528;BME280;47395;42.032;-8.634;2023-03-15T07:51:11;101306.72;;;18.93;49.38
61528;BME280;47395;42.032;-8.634;2023-03-15T07:53:12;101305.09;;;19.96;46.16
61528;BME280;47395;42.032;-8.634;2023-03-15T07:55:13;101304.09;;;20.65;44.78
61528;BME280;47395;42.032;-8.634;2023-03-15T07:57:14;101305.28;;;22.00;41.72
61528;BME280;47395;42.032;-8.634;2023-03-15T07:59:15;101309.78;;;22.50;40.67
61528;BME280;47395;42.032;-8.634;2023-03-15T08:01:16;101309.44;;;23.32;38.91
61528;BME280;47395;42.032;-8.634;2023-03-15T08:03:16;101306.66;;;23.82;37.75
61528;BME280;47395;42.032;-8.634;2023-03-15T08:05:18;101309.16;;;24.21;36.94
61528;BME280;47395;42.032;-8.634;2023-03-15T08:07:18;101311.63;;;24.05;37.30
61528;BME280;47395;42.032;-8.634;2023-03-15T08:09:19;101307.13;;;23.67;38.18
61528;BME280;47395;42.032;-8.634;2023-03-15T08:11:20;101308.44;;;24.84;35.98
61528;BME280;47395;42.032;-8.634;2023-03-15T08:13:21;101306.44;;;24.68;36.01
61528;BME280;47395;42.032;-8.634;2023-03-15T08:15:22;101307.03;;;24.98;35.67
61528;BME280;47395;42.032;-8.634;2023-03-15T08:17:23;101313.25;;;25.43;35.81
61528;BME280;47395;42.032;-8.634;2023-03-15T08:19:24;101302.63;;;26.11;34.08
61528;BME280;47395;42.032;-8.634;2023-03-15T08:21:25;101305.13;;;26.56;32.72
61528;BME280;47395;42.032;-8.634;2023-03-15T08:23:26;101309.13;;;26.35;33.37
61528;BME280;47395;42.032;-8.634;2023-03-15T08:25:27;101306.28;;;26.53;32.85
61528;BME280;47395;42.032;-8.634;2023-03-15T08:27:28;101305.16;;;26.89;31.79
61528;BME280;47395;42.032;-8.634;2023-03-15T08:29:29;101305.38;;;25.76;33.48
61528;BME280;47395;42.032;-8.634;2023-03-15T08:31:30;101296.78;;;25.81;34.07
61528;BME280;47395;42.032;-8.634;2023-03-15T08:33:31;101296.56;;;26.09;33.47
61528;BME280;47395;42.032;-8.634;2023-03-15T08:35:32;101293.88;;;26.09;33.17
61528;BME280;47395;42.032;-8.634;2023-03-15T08:37:34;101294.66;;;26.69;32.03
61528;BME280;47395;42.032;-8.634;2023-03-15T08:39:34;101289.88;;;26.38;32.66
61528;BME280;47395;42.032;-8.634;2023-03-15T08:41:37;101294.50;;;26.03;33.67
61528;BME280;47395;42.032;-8.634;2023-03-15T08:43:38;101296.16;;;26.80;32.40
61528;BME280;47395;42.032;-8.634;2023-03-15T08:45:38;101300.25;;;27.18;31.61
61528;BME280;47395;42.032;-8.634;2023-03-15T08:47:39;101301.31;;;27.73;30.22
61528;BME280;47395;42.032;-8.634;2023-03-15T08:49:40;101294.00;;;27.01;31.78
61528;BME280;47395;42.032;-8.634;2023-03-15T08:51:41;101295.31;;;27.86;30.75
61528;BME280;47395;42.032;-8.634;2023-03-15T08:53:44;101289.59;;;27.81;31.24
61528;BME280;47395;42.032;-8.634;2023-03-15T08:55:47;101289.25;;;27.84;31.21
61528;BME280;47395;42.032;-8.634;2023-03-15T08:57:48;101291.44;;;28.67;29.87
61528;BME280;47395;42.032;-8.634;2023-03-15T08:59:49;101288.63;;;28.37;30.52
61528;BME280;47395;42.032;-8.634;2023-03-15T09:01:50;101287.72;;;28.92;28.62
61528;BME280;47395;42.032;-8.634;2023-03-15T09:03:51;101288.31;;;29.48;28.46
61528;BME280;47395;42.032;-8.634;2023-03-15T09:05:58;101289.09;;;29.41;28.07
61528;BME280;47395;42.032;-8.634;2023-03-15T09:08:00;101288.91;;;30.47;26.64
61528;BME280;47395;42.032;-8.634;2023-03-15T09:10:01;101292.56;;;29.80;28.05
61528;BME280;47395;42.032;-8.634;2023-03-15T09:12:04;101293.97;;;30.28;27.05
61528;BME280;47395;42.032;-8.634;2023-03-15T09:14:07;101287.09;;;29.95;27.85
61528;BME280;47395;42.032;-8.634;2023-03-15T09:16:08;101287.63;;;30.86;26.99
61528;BME280;47395;42.032;-8.634;2023-03-15T09:18:08;101290.00;;;31.25;26.27
61528;BME280;47395;42.032;-8.634;2023-03-15T09:20:11;101290.25;;;31.02;26.51
61528;BME280;47395;42.032;-8.634;2023-03-15T09:22:16;101289.44;;;31.36;27.32
61528;BME280;47395;42.032;-8.634;2023-03-15T09:24:17;101289.25;;;32.56;24.83
61528;BME280;47395;42.032;-8.634;2023-03-15T09:26:17;101282.63;;;31.96;26.24
61528;BME280;47395;42.032;-8.634;2023-03-15T09:28:19;101285.00;;;32.33;25.12
61528;BME280;47395;42.032;-8.634;2023-03-15T09:30:20;101284.56;;;33.38;24.06
61528;BME280;47395;42.032;-8.634;2023-03-15T09:32:21;101283.81;;;32.56;24.09
61528;BME280;47395;42.032;-8.634;2023-03-15T09:34:22;101279.53;;;33.48;24.34
61528;BME280;47395;42.032;-8.634;2023-03-15T09:36:23;101284.34;;;33.98;23.59
61528;BME280;47395;42.032;-8.634;2023-03-15T09:38:26;101282.00;;;33.63;24.64
61528;BME280;47395;42.032;-8.634;2023-03-15T09:40:32;101279.94;;;34.69;23.62
61528;BME280;47395;42.032;-8.634;2023-03-15T09:42:47;101275.69;;;33.69;23.45
61528;BME280;47395;42.032;-8.634;2023-03-15T09:45:11;101280.53;;;33.54;23.41
61528;BME280;47395;42.032;-8.634;2023-03-15T09:47:31;101272.91;;;34.47;22.63
61528;BME280;47395;42.032;-8.634;2023-03-15T09:49:50;101269.31;;;34.79;23.04
61528;BME280;47395;42.032;-8.634;2023-03-15T09:52:10;101275.53;;;34.68;23.42
61528;BME280;47395;42.032;-8.634;2023-03-15T09:54:26;101265.72;;;35.04;22.21
61528;BME280;47395;42.032;-8.634;2023-03-15T09:56:35;101267.13;;;33.98;23.59
61528;BME280;47395;42.032;-8.634;2023-03-15T09:58:37;101262.59;;;34.49;24.10
61528;BME280;47395;42.032;-8.634;2023-03-15T10:00:46;101268.09;;;34.75;23.05
61528;BME280;47395;42.032;-8.634;2023-03-15T10:02:59;101277.03;;;34.89;21.83
61528;BME280;47395;42.032;-8.634;2023-03-15T10:05:15;101272.50;;;35.39;22.33
61528;BME280;47395;42.032;-8.634;2023-03-15T10:07:19;101256.28;;;34.49;23.11
61528;BME280;47395;42.032;-8.634;2023-03-15T10:09:22;101260.09;;;33.70;24.04
61528;BME280;47395;42.032;-8.634;2023-03-15T10:12:21;101255.41;;;33.31;23.30
61528;BME280;47395;42.032;-8.634;2023-03-15T10:14:54;101258.19;;;32.43;26.61
61528;BME280;47395;42.032;-8.634;2023-03-15T10:16:56;101248.78;;;33.66;24.05
61528;BME280;47395;42.032;-8.634;2023-03-15T10:23:49;101241.47;;;33.99;24.54
61528;BME280;47395;42.032;-8.634;2023-03-15T10:25:53;101246.22;;;34.43;21.97
61528;BME280;47395;42.032;-8.634;2023-03-15T10:28:01;101242.75;;;34.29;24.32
61528;BME280;47395;42.032;-8.634;2023-03-15T10:30:19;101242.13;;;35.59;22.28
61528;BME280;47395;42.032;-8.634;2023-03-15T10:32:30;101224.41;;;34.10;23.63
61528;BME280;47395;42.032;-8.634;2023-03-15T10:34:35;101228.06;;;35.18;22.62
61528;BME280;47395;42.032;-8.634;2023-03-15T10:36:36;101230.50;;;35.64;21.24
61528;BME280;47395;42.032;-8.634;2023-03-15T10:38:37;101231.00;;;34.79;23.72
61528;BME280;47395;42.032;-8.634;2023-03-15T10:40:42;101215.50;;;34.92;23.14
61528;BME280;47395;42.032;-8.634;2023-03-15T10:42:44;101224.91;;;36.01;20.84
61528;BME280;47395;42.032;-8.634;2023-03-15T10:44:45;101222.84;;;35.35;22.15
61528;BME280;47395;42.032;-8.634;2023-03-15T10:47:12;101220.38;;;35.46;22.34
61528;BME280;47395;42.032;-8.634;2023-03-15T10:49:15;101215.34;;;36.35;20.71
61528;BME280;47395;42.032;-8.634;2023-03-15T10:51:30;101223.22;;;36.00;20.42
61528;BME280;47395;42.032;-8.634;2023-03-15T10:53:32;101213.00;;;36.74;20.12
61528;BME280;47395;42.032;-8.634;2023-03-15T10:55:42;101219.31;;;36.08;21.33
61528;BME280;47395;42.032;-8.634;2023-03-15T10:57:55;101205.56;;;34.97;22.18
61528;BME280;47395;42.032;-8.634;2023-03-15T11:00:01;101205.19;;;35.62;22.51
61528;BME280;47395;42.032;-8.634;2023-03-15T11:04:19;101201.59;;;35.12;22.97
61528;BME280;47395;42.032;-8.634;2023-03-15T11:06:26;101207.63;;;35.70;20.35